Flight Track Log - Related Links

Times and Time Zones

All times are in EDT time to prevent confusion due to time zone crossing. See the SWA868 flight status page for this flight to view local times or setup timezone preferences in your user account.

Time Position Orientation Groundspeed Altitude Reporting Facility
EDT Latitude Longitude Course Direction KTS MPH feet Rate Location/Type
Thu 01:21:51 PM 29.6544 -95.2917 North 269 310 1,300  Level Houston Center
Thu 01:22:36 PM 29.6889 -95.2853 North 217 250 2,700 2,722 Climbing Houston Center
Thu 01:23:39 PM 29.7542 -95.3006 349° North 241 277 6,200 3,552 Climbing Houston Center
Thu 01:24:41 PM 29.8253 -95.3203 346° North 257 296 10,100 2,855 Climbing Houston Center
Thu 01:25:43 PM 29.9150 -95.3019 10° North 343 395 12,100 2,855 Climbing Houston Center
Thu 01:26:45 PM 30.0147 -95.2761 13° North 366 421 16,000 3,387 Climbing Houston Center
Thu 01:27:47 PM 30.1392 -95.2433 13° North 380 437 19,100 2,688 Climbing Houston Center
Thu 01:28:50 PM 30.2506 -95.2131 13° North 408 470 21,600 2,352 Climbing Houston Center
Thu 01:29:52 PM 30.3683 -95.1822 13° North 432 497 24,000 2,323 Climbing Houston Center
Thu 01:30:54 PM 30.5028 -95.1294 19° North 458 527 26,400 2,081 Climbing Houston Center
Thu 01:31:56 PM 30.6203 -95.0539 29° Northeast 479 551 28,300 1,839 Climbing Houston Center
Thu 01:32:58 PM 30.7425 -94.9803 27° Northeast 492 566 30,200 1,680 Climbing Houston Center
Thu 01:34:01 PM 30.8650 -94.9025 29° Northeast 502 578 31,800 1,680 Climbing Houston Center
Thu 01:35:03 PM 30.9894 -94.8253 28° Northeast 507 583 33,700 1,887 Climbing Houston Center
Thu 01:36:05 PM 31.1364 -94.7336 28° Northeast 507 583 35,700 1,645 Climbing Houston Center
Thu 01:37:07 PM 31.2497 -94.6931 17° North 494 568 37,100 1,355 Climbing Houston Center
Thu 01:38:09 PM 31.3892 -94.6564 13° North 487 560 38,500 871 Climbing Houston Center
Thu 01:39:11 PM 31.5172 -94.6142 16° North 481 554 38,900 265 Climbing Houston Center
Thu 01:40:02 PM 31.6492 -94.5722 15° North 484 557 39,000  Climbing Fort Worth Center
Thu 01:41:04 PM 31.7786 -94.5317 15° North 483 556 38,900  Descending Fort Worth Center
Thu 01:42:06 PM 31.9086 -94.4897 15° North 482 555 39,000  Climbing Fort Worth Center
Thu 01:43:08 PM 32.0392 -94.4472 15° North 483 556 38,900  Descending Fort Worth Center
Thu 01:44:10 PM 32.1686 -94.4056 15° North 483 556 39,000 48 Climbing Fort Worth Center
Thu 01:45:12 PM 32.3086 -94.3603 15° North 484 557 39,000  Level Fort Worth Center
Thu 01:46:15 PM 32.4389 -94.3189 15° North 484 557 39,000  Level Fort Worth Center
Thu 01:47:17 PM 32.5678 -94.2750 16° North 483 556 39,000  Level Fort Worth Center
Thu 01:48:19 PM 32.7233 -94.2247 15° North 482 555 39,000  Level Fort Worth Center
Thu 01:49:21 PM 32.8519 -94.1819 16° North 482 555 39,000  Level Fort Worth Center
Thu 01:50:23 PM 32.9806 -94.1397 15° North 481 554 39,000  Level Fort Worth Center
Thu 01:51:25 PM 33.1083 -94.0986 15° North 480 552 39,000  Level Fort Worth Center
Thu 01:52:27 PM 33.2369 -94.0569 15° North 477 549 39,000  Level Fort Worth Center
Thu 01:53:29 PM 33.3764 -94.0081 16° North 481 554 39,000  Level Fort Worth Center
Thu 01:54:32 PM 33.5036 -93.9639 16° North 481 554 39,000  Level Fort Worth Center
Thu 01:55:34 PM 33.6356 -93.9236 14° North 481 554 39,000  Level Fort Worth Center
Thu 01:56:36 PM 33.7900 -93.8711 16° North 481 554 39,000  Level Fort Worth Center
Thu 01:57:38 PM 33.9189 -93.8272 16° North 481 554 39,000  Level Fort Worth Center
Thu 01:58:40 PM 34.0472 -93.7822 16° North 481 554 39,000  Level Fort Worth Center
Thu 01:59:42 PM 34.1764 -93.7386 16° North 480 552 39,000  Level Fort Worth Center
Thu 02:00:19 PM 34.2544 -93.7133 15° North 481 554 39,000  Level Memphis Center
Thu 02:01:21 PM 34.3783 -93.6708 16° North 481 554 39,000 -1,065 Level Memphis Center
Thu 02:02:23 PM 34.5381 -93.6178 15° North 492 566 36,800 -2,613 Descending Memphis Center
Thu 02:03:25 PM 34.6733 -93.5706 16° North 501 577 33,600 -3,194 Descending Memphis Center
Thu 02:04:27 PM 34.8122 -93.5214 16° North 513 590 30,200 -3,145 Descending Memphis Center
Thu 02:05:29 PM 34.9522 -93.4750 15° North 512 589 27,100 -1,548 Descending Memphis Center
Thu 02:06:31 PM 35.0722 -93.4336 16° North 469 540 27,000 -48 Descending Memphis Center
Thu 02:07:33 PM 35.1833 -93.3972 15° North 421 484 27,000  Level Memphis Center
Thu 02:08:35 PM 35.3111 -93.3511 16° North 399 459 27,000  Level Memphis Center
Thu 02:09:37 PM 35.4144 -93.3158 16° North 392 451 27,000 -672 Level Memphis Center
Thu 02:10:40 PM 35.5167 -93.2783 17° North 386 444 25,600 -1,440 Descending Memphis Center
Thu 02:11:42 PM 35.6256 -93.2394 16° North 400 460 24,000 -2,419 Descending Memphis Center
Thu 02:12:44 PM 35.7322 -93.2028 16° North 394 453 20,600 -3,484 Descending Memphis Center
Thu 02:13:46 PM 35.8394 -93.1514 21° North 416 479 16,800 -3,339 Descending Memphis Center
Thu 02:14:48 PM 35.9264 -93.0606 40° Northeast 409 471 13,700 -2,177 Descending Memphis Center
Thu 02:15:50 PM 36.0189 -93.0414 10° North 357 411 12,300 -1,935 Descending Memphis Center
Thu 02:16:52 PM 36.1181 -93.0272 North 316 364 9,700 -2,371 Descending Memphis Center
Thu 02:17:54 PM 36.1953 -93.0158 North 296 341 7,400 -1,790 Descending Memphis Center
Thu 02:18:56 PM 36.2692 -93.0042 North 281 323 6,000 -677 Descending Memphis Center
Thu 02:19:58 PM 36.3269 -93.0231 345° North 247 284 6,000 -484 Level Memphis Center
Thu 02:21:00 PM 36.3719 -93.0614 326° Northwest 217 250 5,000 -949 Descending Memphis Center
Thu 02:23:33 PM 36.4767 -93.1628 322° Northwest 156 180 2,600 -941 Descending Kansas City Center
Thu 02:25:00 PM 36.5167 -93.2000 302° West  Level FlightAware Approximate
Thu 02:32:00 PM 36.5321 -93.2005 302° West  Level Estimated
Thu 02:33:00 PM 36.5321 -93.2005 302° West  Level Estimated

Login

Don't have an account? Register now (free) for customized features, flight alerts, and more!